createdAt,value
2018-11-04T00:00:42.677Z,32.30
2018-11-04T00:01:42.731Z,31.30
2018-11-04T00:02:42.657Z,31.70
2018-11-04T00:03:42.646Z,32.00
2018-11-04T00:04:42.635Z,33.80
2018-11-04T00:05:42.624Z,31.50
2018-11-04T00:06:42.612Z,33.10
2018-11-04T00:07:42.603Z,31.00
2018-11-04T00:08:42.590Z,32.10
2018-11-04T00:09:42.578Z,32.20
2018-11-04T00:10:42.572Z,32.70
2018-11-04T00:11:42.559Z,32.90
2018-11-04T00:12:42.546Z,33.10
2018-11-04T00:13:42.536Z,30.50
2018-11-04T00:14:42.573Z,31.90
2018-11-04T00:15:42.514Z,32.60
2018-11-04T00:16:42.502Z,32.30
2018-11-04T00:17:42.492Z,32.20
2018-11-04T00:18:42.478Z,32.80
2018-11-04T00:19:42.467Z,32.50
2018-11-04T00:20:42.457Z,32.20
2018-11-04T00:21:42.445Z,33.10
2018-11-04T00:22:42.435Z,32.30
2018-11-04T00:23:42.474Z,32.20
2018-11-04T00:24:42.413Z,32.10
2018-11-04T00:25:42.402Z,32.00
2018-11-04T00:26:42.417Z,33.60
2018-11-04T00:27:42.380Z,32.50
2018-11-04T00:28:42.416Z,33.80
2018-11-04T00:29:42.413Z,33.70
2018-11-04T00:30:42.349Z,33.10
2018-11-04T00:31:42.335Z,31.30
2018-11-04T00:32:42.324Z,33.40
2018-11-04T00:33:42.311Z,32.00
2018-11-04T00:34:42.309Z,31.70
2018-11-04T00:35:42.289Z,32.70
2018-11-04T00:36:42.279Z,31.00
2018-11-04T00:37:42.266Z,34.40
2018-11-04T00:38:42.261Z,35.90
2018-11-04T00:39:42.244Z,34.70
2018-11-04T00:40:42.334Z,38.50
2018-11-04T00:41:42.224Z,33.50
2018-11-04T00:42:42.210Z,32.00
2018-11-04T00:43:42.201Z,30.40
2018-11-04T00:44:42.193Z,33.20
2018-11-04T00:45:42.177Z,30.80
2018-11-04T00:46:42.167Z,30.60
2018-11-04T00:47:42.155Z,30.50
2018-11-04T00:48:42.144Z,30.20
2018-11-04T00:49:42.134Z,29.50
2018-11-04T00:50:42.122Z,30.30
2018-11-04T00:51:42.113Z,29.80
2018-11-04T00:52:42.100Z,30.20
2018-11-04T00:53:42.090Z,28.80
2018-11-04T00:54:42.078Z,28.80
2018-11-04T00:55:42.072Z,28.70
2018-11-04T00:56:42.057Z,29.40
2018-11-04T00:57:42.045Z,30.50
2018-11-04T00:58:42.037Z,30.50
2018-11-04T00:59:42.032Z,30.10
2018-11-04T01:00:42.014Z,30.00
2018-11-04T01:01:42.004Z,30.20
2018-11-04T01:02:41.991Z,29.70
2018-11-04T01:03:41.983Z,31.40
2018-11-04T01:04:41.969Z,30.70
2018-11-04T01:05:41.956Z,30.40
2018-11-04T01:06:41.947Z,31.50
2018-11-04T01:07:41.935Z,35.00
2018-11-04T01:08:41.927Z,31.90
2018-11-04T01:09:41.916Z,30.50
2018-11-04T01:10:41.906Z,31.70
2018-11-04T01:11:41.894Z,31.60
2018-11-04T01:12:41.882Z,34.90
2018-11-04T01:13:41.870Z,33.60
2018-11-04T01:14:41.862Z,31.80
2018-11-04T01:15:41.849Z,32.90
2018-11-04T01:16:41.837Z,30.90
2018-11-04T01:17:41.828Z,30.90
2018-11-04T01:18:41.816Z,32.90
2018-11-04T01:19:41.810Z,32.80
2018-11-04T01:20:41.794Z,32.10
2018-11-04T01:21:41.784Z,32.30
2018-11-04T01:22:41.773Z,31.40
2018-11-04T01:23:41.772Z,30.10
2018-11-04T01:24:41.753Z,31.80
2018-11-04T01:25:41.742Z,31.40
2018-11-04T01:26:41.736Z,32.00
2018-11-04T01:27:41.720Z,32.00
2018-11-04T01:28:41.707Z,32.10
2018-11-04T01:29:41.696Z,30.90
2018-11-04T01:30:41.690Z,30.80
2018-11-04T01:31:41.674Z,32.80
2018-11-04T01:32:41.665Z,30.20
2018-11-04T01:33:41.652Z,32.30
2018-11-04T01:34:41.642Z,31.00
2018-11-04T01:35:41.632Z,33.70
2018-11-04T01:36:41.622Z,30.30
2018-11-04T01:37:41.608Z,31.10
2018-11-04T01:38:41.598Z,32.10
2018-11-04T01:39:41.588Z,30.90
2018-11-04T01:40:41.576Z,29.50
2018-11-04T01:41:41.565Z,30.10
2018-11-04T01:42:41.561Z,31.90
2018-11-04T01:43:41.544Z,32.20
2018-11-04T01:44:41.536Z,32.00
2018-11-04T01:45:41.523Z,31.30
2018-11-04T01:46:41.512Z,30.80
2018-11-04T01:47:41.503Z,31.10
2018-11-04T01:48:41.489Z,31.70
2018-11-04T01:49:41.480Z,33.70
2018-11-04T01:50:41.473Z,31.90
2018-11-04T01:51:41.458Z,32.10
2018-11-04T01:52:41.446Z,32.40
2018-11-04T01:53:41.435Z,33.00
2018-11-04T01:54:41.426Z,32.10
2018-11-04T01:55:41.416Z,32.40
2018-11-04T01:56:41.403Z,32.60
2018-11-04T01:57:41.394Z,31.90
2018-11-04T01:58:41.383Z,31.90
2018-11-04T01:59:41.371Z,32.30
2018-11-04T02:00:41.359Z,33.10
2018-11-04T02:01:41.350Z,33.50
2018-11-04T02:02:41.340Z,33.20
2018-11-04T02:03:41.329Z,31.80
2018-11-04T02:04:41.316Z,32.20
2018-11-04T02:05:41.307Z,33.00
2018-11-04T02:06:41.295Z,32.40
2018-11-04T02:07:41.285Z,31.90
2018-11-04T02:08:41.273Z,34.00
2018-11-04T02:09:41.262Z,33.40
2018-11-04T02:10:41.251Z,33.70
2018-11-04T02:11:41.241Z,33.50
2018-11-04T02:12:41.232Z,33.00
2018-11-04T02:13:41.222Z,33.70
2018-11-04T02:14:41.207Z,32.90
2018-11-04T02:15:41.198Z,32.30
2018-11-04T02:16:41.187Z,32.00
2018-11-04T02:17:41.173Z,33.40
2018-11-04T02:18:41.166Z,32.80
2018-11-04T02:19:41.152Z,33.40
2018-11-04T02:20:41.141Z,32.40
2018-11-04T02:21:41.133Z,32.70
2018-11-04T02:22:41.128Z,31.30
2018-11-04T02:23:41.110Z,30.50
2018-11-04T02:24:41.097Z,32.10
2018-11-04T02:25:41.088Z,31.90
2018-11-04T02:26:41.076Z,30.90
2018-11-04T02:27:41.066Z,33.10
2018-11-04T02:28:41.057Z,34.30
2018-11-04T02:29:41.046Z,33.80
2018-11-04T02:30:41.034Z,32.70
2018-11-04T02:31:41.023Z,33.50
2018-11-04T02:32:41.016Z,32.00
2018-11-04T02:33:41.004Z,33.70
2018-11-04T02:34:40.991Z,33.10
2018-11-04T02:35:40.981Z,33.10
2018-11-04T02:36:40.969Z,32.00
2018-11-04T02:37:40.956Z,32.10
2018-11-04T02:38:40.946Z,31.70
2018-11-04T02:39:40.936Z,30.50
2018-11-04T02:40:40.924Z,32.30
2018-11-04T02:41:40.922Z,32.10
2018-11-04T02:42:40.905Z,32.50
2018-11-04T02:43:40.894Z,33.20
2018-11-04T02:44:40.884Z,32.40
2018-11-04T02:45:40.872Z,33.70
2018-11-04T02:46:40.914Z,34.70
2018-11-04T02:47:40.849Z,32.30
2018-11-04T02:48:40.841Z,33.50
2018-11-04T02:49:40.827Z,33.20
2018-11-04T02:50:40.817Z,34.20
2018-11-04T02:51:40.807Z,36.80
2018-11-04T02:52:40.796Z,33.20
2018-11-04T02:53:40.785Z,33.70
2018-11-04T02:54:40.772Z,33.60
2018-11-04T02:55:40.763Z,32.60
2018-11-04T02:56:40.749Z,34.50
2018-11-04T02:57:40.750Z,33.50
2018-11-04T02:58:40.727Z,34.40
2018-11-04T02:59:40.717Z,33.20
2018-11-04T03:00:40.707Z,32.90
2018-11-04T03:01:40.757Z,35.10
2018-11-04T03:02:40.685Z,35.40
2018-11-04T03:03:40.674Z,32.20
2018-11-04T03:04:40.662Z,36.10
2018-11-04T03:05:40.653Z,34.10
2018-11-04T03:06:40.642Z,34.30
2018-11-04T03:07:40.630Z,35.90
2018-11-04T03:08:40.618Z,33.80
2018-11-04T03:09:40.607Z,34.20
2018-11-04T03:10:40.598Z,33.60
2018-11-04T03:11:40.585Z,36.10
2018-11-04T03:12:40.577Z,35.80
2018-11-04T03:13:40.565Z,35.40
2018-11-04T03:14:40.559Z,36.20
2018-11-04T03:15:40.542Z,36.40
2018-11-04T03:16:40.533Z,37.20
2018-11-04T03:17:40.523Z,36.20
2018-11-04T03:18:40.509Z,37.10
2018-11-04T03:19:40.499Z,35.60
2018-11-04T03:20:40.488Z,36.90
2018-11-04T03:21:40.476Z,35.40
2018-11-04T03:22:40.464Z,33.90
2018-11-04T03:23:40.455Z,33.90
2018-11-04T03:24:40.533Z,36.30
2018-11-04T03:25:40.432Z,35.90
2018-11-04T03:26:40.419Z,36.00
2018-11-04T03:27:40.409Z,35.80
2018-11-04T03:28:40.401Z,37.10
2018-11-04T03:29:40.388Z,35.10
2018-11-04T03:30:40.379Z,35.60
2018-11-04T03:31:40.370Z,36.90
2018-11-04T03:32:40.356Z,35.90
2018-11-04T03:33:40.344Z,34.80
2018-11-04T03:34:40.332Z,33.80
2018-11-04T03:35:40.322Z,35.50
2018-11-04T03:36:40.310Z,35.90
2018-11-04T03:37:40.303Z,34.30
2018-11-04T03:38:40.288Z,34.60
2018-11-04T03:39:40.278Z,35.80
2018-11-04T03:40:40.264Z,37.10
2018-11-04T03:41:40.256Z,36.20
2018-11-04T03:42:40.251Z,36.20
2018-11-04T03:43:40.233Z,36.00
2018-11-04T03:44:40.221Z,34.20
2018-11-04T03:45:40.212Z,34.50
2018-11-04T03:46:40.202Z,35.80
2018-11-04T03:47:40.193Z,35.90
2018-11-04T03:48:40.185Z,36.50
2018-11-04T03:49:40.168Z,35.70
2018-11-04T03:50:40.157Z,35.40
2018-11-04T03:51:40.146Z,35.90
2018-11-04T03:52:40.132Z,36.10
2018-11-04T03:53:40.121Z,38.20
2018-11-04T03:54:40.112Z,36.60
2018-11-04T03:55:40.101Z,36.00
2018-11-04T03:56:40.090Z,36.90
2018-11-04T03:57:40.078Z,34.30
2018-11-04T03:58:40.068Z,37.00
2018-11-04T03:59:40.057Z,39.50
2018-11-04T04:00:40.048Z,37.20
2018-11-04T04:01:40.035Z,34.90
2018-11-04T04:02:40.024Z,36.70
2018-11-04T04:03:40.013Z,37.60
2018-11-04T04:04:40.001Z,37.00
2018-11-04T04:05:39.989Z,36.70
2018-11-04T04:06:39.979Z,36.00
2018-11-04T04:07:39.971Z,34.30
2018-11-04T04:08:39.955Z,36.40
2018-11-04T04:09:39.945Z,34.10
2018-11-04T04:10:39.934Z,36.00
2018-11-04T04:11:39.924Z,35.40
2018-11-04T04:12:39.914Z,37.40
2018-11-04T04:13:39.909Z,40.00
2018-11-04T04:14:39.891Z,38.70
2018-11-04T04:15:39.880Z,36.70
2018-11-04T04:16:39.870Z,36.30
2018-11-04T04:17:39.857Z,36.00
2018-11-04T04:18:39.848Z,34.90
2018-11-04T04:19:39.837Z,36.90
2018-11-04T04:20:39.825Z,36.00
2018-11-04T04:21:39.814Z,36.40
2018-11-04T04:22:39.805Z,35.60
2018-11-04T04:23:39.793Z,34.90
2018-11-04T04:24:39.780Z,35.90
2018-11-04T04:25:39.772Z,37.20
2018-11-04T04:26:39.757Z,37.90
2018-11-04T04:27:39.747Z,39.10
2018-11-04T04:28:39.735Z,36.70
2018-11-04T04:29:39.724Z,38.30
2018-11-04T04:30:39.713Z,37.40
2018-11-04T04:31:39.705Z,36.30
2018-11-04T04:32:39.692Z,35.10
2018-11-04T04:33:39.681Z,36.70
2018-11-04T04:34:39.670Z,36.70
2018-11-04T04:35:39.659Z,37.00
2018-11-04T04:36:39.647Z,35.10
2018-11-04T04:37:39.636Z,36.00
2018-11-04T04:38:39.626Z,36.50
2018-11-04T04:39:39.618Z,37.10
2018-11-04T04:40:39.602Z,35.90
2018-11-04T04:41:39.594Z,35.20
2018-11-04T04:42:39.582Z,37.10
2018-11-04T04:43:39.570Z,34.20
2018-11-04T04:44:39.559Z,34.90
2018-11-04T04:45:39.548Z,35.70
2018-11-04T04:46:39.538Z,37.20
2018-11-04T04:47:39.526Z,37.00
2018-11-04T04:48:39.513Z,37.80
2018-11-04T04:49:39.505Z,37.60
2018-11-04T04:50:39.493Z,37.70
2018-11-04T04:51:39.483Z,38.40
2018-11-04T04:52:39.474Z,39.30
2018-11-04T04:53:39.461Z,38.70
2018-11-04T04:54:39.450Z,38.70
2018-11-04T04:55:39.439Z,38.10
2018-11-04T04:56:39.428Z,37.90
2018-11-04T04:57:39.414Z,38.20
2018-11-04T04:58:39.407Z,34.80
2018-11-04T04:59:39.394Z,37.80
2018-11-04T05:00:39.382Z,39.10
2018-11-04T05:01:39.372Z,36.80
2018-11-04T05:02:39.360Z,38.60
2018-11-04T05:03:39.352Z,36.40
2018-11-04T05:04:39.338Z,36.70
2018-11-04T05:05:39.327Z,36.20
2018-11-04T05:06:39.317Z,39.80
2018-11-04T05:07:39.306Z,38.70
2018-11-04T05:08:39.295Z,36.40
2018-11-04T05:09:39.283Z,36.30
2018-11-04T05:10:39.272Z,37.10
2018-11-04T05:11:39.262Z,36.50
2018-11-04T05:12:39.250Z,38.10
2018-11-04T05:13:39.241Z,36.40
2018-11-04T05:14:39.228Z,40.20
2018-11-04T05:15:39.216Z,37.90
2018-11-04T05:16:39.209Z,36.50
2018-11-04T05:17:39.196Z,33.30
2018-11-04T05:18:39.183Z,36.10
2018-11-04T05:19:39.173Z,35.60
2018-11-04T05:20:39.162Z,35.10
2018-11-04T05:21:39.151Z,36.70
2018-11-04T05:22:39.142Z,35.90
2018-11-04T05:23:39.129Z,36.30
2018-11-04T05:24:39.121Z,36.30
2018-11-04T05:25:39.108Z,34.80
2018-11-04T05:26:39.098Z,35.70
2018-11-04T05:27:39.087Z,34.90
2018-11-04T05:28:39.075Z,35.50
2018-11-04T05:29:39.065Z,37.10
2018-11-04T05:30:39.051Z,35.30
2018-11-04T05:31:39.041Z,37.40
2018-11-04T05:32:39.029Z,37.60
2018-11-04T05:33:39.018Z,39.50
2018-11-04T05:34:39.008Z,37.30
2018-11-04T05:35:38.998Z,41.10
2018-11-04T05:36:38.985Z,40.60
2018-11-04T05:37:38.974Z,38.40
2018-11-04T05:38:38.964Z,39.20
2018-11-04T05:39:38.960Z,37.40
2018-11-04T05:40:38.941Z,37.00
2018-11-04T05:41:38.931Z,37.60
2018-11-04T05:42:38.920Z,37.30
2018-11-04T05:43:38.909Z,35.50
2018-11-04T05:44:38.896Z,36.60
2018-11-04T05:45:38.887Z,35.60
2018-11-04T05:46:38.877Z,35.80
2018-11-04T05:47:38.864Z,35.40
2018-11-04T05:48:38.853Z,35.40
2018-11-04T05:49:38.844Z,37.00
2018-11-04T05:50:38.831Z,35.90
2018-11-04T05:51:38.822Z,35.40
2018-11-04T05:52:38.817Z,35.60
2018-11-04T05:53:38.799Z,35.90
2018-11-04T05:54:38.787Z,35.80
2018-11-04T05:55:38.776Z,34.90
2018-11-04T05:56:38.765Z,36.20
2018-11-04T05:57:38.754Z,36.40
2018-11-04T05:58:38.743Z,37.70
2018-11-04T05:59:38.731Z,35.70
2018-11-04T06:00:38.724Z,37.10
2018-11-04T06:01:38.709Z,35.20
2018-11-04T06:02:38.697Z,39.10
2018-11-04T06:03:38.688Z,37.50
2018-11-04T06:04:38.675Z,36.50
2018-11-04T06:05:38.667Z,36.70
2018-11-04T06:06:38.656Z,39.50
2018-11-04T06:07:38.645Z,37.00
2018-11-04T06:08:38.632Z,36.60
2018-11-04T06:09:38.621Z,37.80
2018-11-04T06:10:38.614Z,39.00
2018-11-04T06:11:38.604Z,37.40
2018-11-04T06:12:38.592Z,38.40
2018-11-04T06:13:38.577Z,36.40
2018-11-04T06:14:38.568Z,37.60
2018-11-04T06:15:38.557Z,37.60
2018-11-04T06:16:38.545Z,35.60
2018-11-04T06:17:38.533Z,37.30
2018-11-04T06:18:38.526Z,37.70
2018-11-04T06:19:38.592Z,35.80
2018-11-04T06:20:38.500Z,36.50
2018-11-04T06:21:38.489Z,36.90
2018-11-04T06:22:38.481Z,36.90
2018-11-04T06:23:38.469Z,37.00
2018-11-04T06:24:38.456Z,36.60
2018-11-04T06:25:38.448Z,35.80
2018-11-04T06:26:38.436Z,35.50
2018-11-04T06:27:38.425Z,34.50
2018-11-04T06:28:38.412Z,36.70
2018-11-04T06:29:38.403Z,34.50
2018-11-04T06:30:38.391Z,34.80
2018-11-04T06:31:38.408Z,34.00
2018-11-04T06:32:38.374Z,38.60
2018-11-04T06:33:38.358Z,35.20
2018-11-04T06:34:38.438Z,37.10
2018-11-04T06:35:38.339Z,37.00
2018-11-04T06:36:38.325Z,34.60
2018-11-04T06:37:38.313Z,34.20
2018-11-04T06:38:38.305Z,36.30
2018-11-04T06:39:38.295Z,37.40
2018-11-04T06:40:38.280Z,41.10
2018-11-04T06:41:38.271Z,37.00
2018-11-04T06:42:38.261Z,37.50
2018-11-04T06:43:38.250Z,37.80
2018-11-04T06:44:38.237Z,37.90
2018-11-04T06:45:38.226Z,37.70
2018-11-04T06:46:38.217Z,36.90
2018-11-04T06:47:38.305Z,36.40
2018-11-04T06:48:38.195Z,37.40
2018-11-04T06:49:38.182Z,36.00
2018-11-04T06:50:38.198Z,37.40
2018-11-04T06:51:38.161Z,36.20
2018-11-04T06:52:38.150Z,35.20
2018-11-04T06:53:38.140Z,37.50
2018-11-04T06:54:38.128Z,39.30
2018-11-04T06:55:38.117Z,36.60
2018-11-04T06:56:38.105Z,36.50
2018-11-04T06:57:38.094Z,39.70
2018-11-04T06:58:38.084Z,38.30
2018-11-04T06:59:38.079Z,36.50
2018-11-04T07:00:38.064Z,38.30
2018-11-04T07:01:38.053Z,42.40
2018-11-04T07:02:38.043Z,38.00
2018-11-04T07:03:38.032Z,37.30
2018-11-04T07:04:38.020Z,36.30
2018-11-04T07:05:38.009Z,38.80
2018-11-04T07:06:37.998Z,37.80
2018-11-04T07:07:37.984Z,37.80
2018-11-04T07:08:37.975Z,39.00
2018-11-04T07:09:37.962Z,40.60
2018-11-04T07:10:37.953Z,38.30
2018-11-04T07:11:37.943Z,38.40
2018-11-04T07:12:37.930Z,39.00
2018-11-04T07:13:37.919Z,38.80
2018-11-04T07:14:37.911Z,40.70
2018-11-04T07:15:37.899Z,37.40
2018-11-04T07:16:37.886Z,39.00
2018-11-04T07:17:37.878Z,38.70
2018-11-04T07:18:37.866Z,36.80
2018-11-04T07:19:37.852Z,37.10
2018-11-04T07:20:37.840Z,34.30
2018-11-04T07:21:37.837Z,36.20
2018-11-04T07:22:37.820Z,37.00
2018-11-04T07:23:37.810Z,35.90
2018-11-04T07:24:37.797Z,38.20
2018-11-04T07:25:37.838Z,37.60
2018-11-04T07:26:37.777Z,39.50
2018-11-04T07:27:37.764Z,37.40
2018-11-04T07:28:37.752Z,40.20
2018-11-04T07:29:37.743Z,37.80
2018-11-04T07:30:37.733Z,38.40
2018-11-04T07:31:37.723Z,36.90
2018-11-04T07:32:37.709Z,35.80
2018-11-04T07:33:37.711Z,35.40
2018-11-04T07:34:37.687Z,39.70
2018-11-04T07:35:37.676Z,39.20
2018-11-04T07:36:37.664Z,38.30
2018-11-04T07:37:37.654Z,38.30
2018-11-04T07:38:37.643Z,37.00
2018-11-04T07:39:37.633Z,36.40
2018-11-04T07:40:37.618Z,36.10
2018-11-04T07:41:37.609Z,38.00
2018-11-04T07:42:37.600Z,35.20
2018-11-04T07:43:37.594Z,37.30
2018-11-04T07:44:37.574Z,36.40
2018-11-04T07:45:37.564Z,39.30
2018-11-04T07:46:37.552Z,41.30
2018-11-04T07:47:37.545Z,36.20
2018-11-04T07:48:37.531Z,38.50
2018-11-04T07:49:37.521Z,38.50
2018-11-04T07:50:37.528Z,36.10
2018-11-04T07:51:37.590Z,38.30
2018-11-04T07:52:37.485Z,38.10
2018-11-04T07:53:37.475Z,40.80
2018-11-04T07:54:37.483Z,38.00
2018-11-04T07:55:37.453Z,39.50
2018-11-04T07:56:37.440Z,41.50
2018-11-04T07:57:37.430Z,38.30
2018-11-04T07:58:37.419Z,38.70
2018-11-04T07:59:37.407Z,41.20
2018-11-04T08:00:37.398Z,41.40
2018-11-04T08:01:37.389Z,39.00
2018-11-04T08:02:37.375Z,39.70
2018-11-04T08:03:37.365Z,37.60
2018-11-04T08:04:37.353Z,40.60
2018-11-04T08:05:37.342Z,40.10
2018-11-04T08:06:37.330Z,42.20
2018-11-04T08:07:37.322Z,39.20
2018-11-04T08:08:37.307Z,40.80
2018-11-04T08:09:37.299Z,40.20
2018-11-04T08:10:37.288Z,38.40
2018-11-04T08:11:37.275Z,38.70
2018-11-04T08:12:37.266Z,37.30
2018-11-04T08:13:37.353Z,38.00
2018-11-04T08:14:37.243Z,35.00
2018-11-04T08:15:37.234Z,40.70
2018-11-04T08:16:37.223Z,39.80
2018-11-04T08:17:37.209Z,39.60
2018-11-04T08:18:37.200Z,36.90
2018-11-04T08:19:37.189Z,37.90
2018-11-04T08:20:37.179Z,36.80
2018-11-04T08:21:37.167Z,38.60
2018-11-04T08:22:37.160Z,38.10
2018-11-04T08:23:37.146Z,39.10
2018-11-04T08:24:37.135Z,36.80
2018-11-04T08:25:37.125Z,35.90
2018-11-04T08:26:37.118Z,38.80
2018-11-04T08:27:37.155Z,37.50
2018-11-04T08:28:37.104Z,39.30
2018-11-04T08:29:37.081Z,36.30
2018-11-04T08:30:37.072Z,36.60
2018-11-04T08:31:37.060Z,44.00
2018-11-04T08:32:37.049Z,40.30
2018-11-04T08:33:37.039Z,41.40
2018-11-04T08:34:37.030Z,40.10
2018-11-04T08:35:37.017Z,37.60
2018-11-04T08:36:37.011Z,40.40
2018-11-04T08:37:36.995Z,39.70
2018-11-04T08:38:36.987Z,39.60
2018-11-04T08:39:36.991Z,38.00
2018-11-04T08:40:36.962Z,41.10
2018-11-04T08:41:36.961Z,41.20
2018-11-04T08:42:36.944Z,40.20
2018-11-04T08:43:36.931Z,39.80
2018-11-04T08:44:36.919Z,37.00
2018-11-04T08:45:36.919Z,40.80
2018-11-04T08:46:36.901Z,40.80
2018-11-04T08:47:36.887Z,43.10
2018-11-04T08:48:36.875Z,42.80
2018-11-04T08:49:36.864Z,41.00
2018-11-04T08:50:36.855Z,38.80
2018-11-04T08:51:36.842Z,40.70
2018-11-04T08:52:36.885Z,40.80
2018-11-04T08:53:36.822Z,42.20
2018-11-04T08:54:36.810Z,40.90
2018-11-04T08:55:36.801Z,38.70
2018-11-04T08:56:36.787Z,41.90
2018-11-04T08:57:36.779Z,41.50
2018-11-04T08:58:36.765Z,39.90
2018-11-04T08:59:36.755Z,41.30
2018-11-04T09:00:36.744Z,41.60
2018-11-04T09:01:36.733Z,39.20
2018-11-04T09:02:36.723Z,37.50
2018-11-04T09:03:36.712Z,38.30
2018-11-04T09:04:36.700Z,39.50
2018-11-04T09:05:36.689Z,41.90
2018-11-04T09:06:36.755Z,40.30
2018-11-04T09:07:36.671Z,39.30
2018-11-04T09:08:36.657Z,37.90
2018-11-04T09:09:36.645Z,38.60
2018-11-04T09:10:36.636Z,39.90
2018-11-04T09:11:36.623Z,39.80
2018-11-04T09:12:36.613Z,39.90
2018-11-04T09:13:36.601Z,38.60
2018-11-04T09:14:36.590Z,44.20
2018-11-04T09:15:36.581Z,43.10
2018-11-04T09:16:36.568Z,39.70
2018-11-04T09:17:36.558Z,38.10
2018-11-04T09:18:36.548Z,39.80
2018-11-04T09:19:36.536Z,39.00
2018-11-04T09:20:36.524Z,39.80
2018-11-04T09:21:36.563Z,41.20
2018-11-04T09:22:36.526Z,42.70
2018-11-04T09:23:36.515Z,39.10
2018-11-04T09:24:36.480Z,40.10
2018-11-04T09:25:36.470Z,40.70
2018-11-04T09:26:36.458Z,38.80
2018-11-04T09:27:36.448Z,39.30
2018-11-04T09:28:36.435Z,38.90
2018-11-04T09:29:36.425Z,41.00
2018-11-04T09:30:36.414Z,38.10
2018-11-04T09:31:36.400Z,38.40
2018-11-04T09:32:36.392Z,38.60
2018-11-04T09:33:36.383Z,39.40
2018-11-04T09:34:36.417Z,37.70
2018-11-04T09:35:36.538Z,39.40
2018-11-04T09:36:36.505Z,39.10
2018-11-04T09:37:36.334Z,36.80
2018-11-04T09:38:36.323Z,39.50
2018-11-04T09:39:36.314Z,36.40
2018-11-04T09:40:36.301Z,36.40
2018-11-04T09:41:36.296Z,39.90
2018-11-04T09:42:36.281Z,38.40
2018-11-04T09:43:36.268Z,37.40
2018-11-04T09:44:36.258Z,39.90
2018-11-04T09:45:36.246Z,37.00
2018-11-04T09:46:36.236Z,39.90
2018-11-04T09:47:36.226Z,38.50
2018-11-04T09:48:36.216Z,40.00
2018-11-04T09:49:36.205Z,42.00
2018-11-04T09:50:36.192Z,40.10
2018-11-04T09:51:36.188Z,41.30
2018-11-04T09:52:36.170Z,38.80
2018-11-04T09:53:36.159Z,37.60
2018-11-04T09:54:36.149Z,38.60
2018-11-04T09:55:36.138Z,36.90
2018-11-04T09:56:36.252Z,37.80
2018-11-04T09:57:36.116Z,37.40
2018-11-04T09:58:36.106Z,37.70
2018-11-04T09:59:36.097Z,38.20
2018-11-04T10:00:36.085Z,40.60
2018-11-04T10:01:36.073Z,38.90
2018-11-04T10:02:36.162Z,38.90
2018-11-04T10:03:36.052Z,36.20
2018-11-04T10:04:36.039Z,37.10
2018-11-04T10:05:36.028Z,36.60
2018-11-04T10:06:36.022Z,39.00
2018-11-04T10:07:36.008Z,38.10
2018-11-04T10:08:35.995Z,38.10
2018-11-04T10:09:35.992Z,36.20
2018-11-04T10:10:35.977Z,38.00
2018-11-04T10:11:35.966Z,37.00
2018-11-04T10:12:35.952Z,38.60
2018-11-04T10:13:35.945Z,36.70
2018-11-04T10:14:35.933Z,35.70
2018-11-04T10:15:35.923Z,35.80
2018-11-04T10:16:35.911Z,35.80
2018-11-04T10:17:35.902Z,35.70
2018-11-04T10:18:35.939Z,35.80
2018-11-04T10:19:36.070Z,34.10
2018-11-04T10:20:36.290Z,37.30
2018-11-04T10:21:35.856Z,40.80
2018-11-04T10:22:35.850Z,37.10
2018-11-04T10:23:35.863Z,38.10
2018-11-04T10:24:35.826Z,39.10
2018-11-04T10:25:35.816Z,37.10
2018-11-04T10:26:35.806Z,37.30
2018-11-04T10:27:35.806Z,36.30
2018-11-04T10:28:35.784Z,37.50
2018-11-04T10:29:35.774Z,36.20
2018-11-04T10:30:35.765Z,39.10
2018-11-04T10:31:35.754Z,37.90
2018-11-04T10:32:35.740Z,38.30
2018-11-04T10:33:35.732Z,36.00
2018-11-04T10:34:35.722Z,37.50
2018-11-04T10:35:35.711Z,36.10
2018-11-04T10:36:35.700Z,39.60
2018-11-04T10:37:35.689Z,35.90
2018-11-04T10:38:35.679Z,35.40
2018-11-04T10:39:35.668Z,37.20
2018-11-04T10:40:35.671Z,35.20
2018-11-04T10:41:35.646Z,35.90
2018-11-04T10:42:35.638Z,35.10
2018-11-04T10:43:35.629Z,37.80
2018-11-04T10:44:35.628Z,37.40
2018-11-04T10:45:35.608Z,41.90
2018-11-04T10:46:35.603Z,38.70
2018-11-04T10:47:35.583Z,37.30
2018-11-04T10:48:35.573Z,36.20
2018-11-04T10:49:35.764Z,39.00
2018-11-04T10:50:35.550Z,38.50
2018-11-04T10:51:35.548Z,38.30
2018-11-04T10:52:35.542Z,37.20
2018-11-04T10:53:35.524Z,38.10
2018-11-04T10:54:35.520Z,43.10
2018-11-04T10:55:35.520Z,37.20
2018-11-04T10:56:35.502Z,43.00
2018-11-04T10:57:35.480Z,37.90
2018-11-04T10:58:35.497Z,39.90
2018-11-04T10:59:35.457Z,41.20
2018-11-04T11:00:35.462Z,39.80
2018-11-04T11:01:35.440Z,36.70
2018-11-04T11:02:35.442Z,38.60
2018-11-04T11:03:35.418Z,38.10
2018-11-04T11:04:35.473Z,38.60
2018-11-04T11:05:35.397Z,40.20
2018-11-04T11:06:35.394Z,40.70
2018-11-04T11:07:35.376Z,39.80
2018-11-04T11:08:35.358Z,41.50
2018-11-04T11:09:35.373Z,42.00
2018-11-04T11:10:35.356Z,45.10
2018-11-04T11:11:35.329Z,41.90
2018-11-04T11:12:35.328Z,41.00
2018-11-04T11:13:35.314Z,43.00
2018-11-04T11:14:35.307Z,40.00
2018-11-04T11:15:35.291Z,40.50
2018-11-04T11:16:35.274Z,43.50
2018-11-04T11:17:35.271Z,41.60
2018-11-04T11:18:35.248Z,39.70
2018-11-04T11:19:35.247Z,41.60
2018-11-04T11:20:35.247Z,41.50
2018-11-04T11:21:35.225Z,41.80
2018-11-04T11:22:35.306Z,43.40
2018-11-04T11:23:35.206Z,42.50
2018-11-04T11:24:35.200Z,41.40
2018-11-04T11:25:35.200Z,41.30
2018-11-04T11:26:35.178Z,42.80
2018-11-04T11:27:35.161Z,44.80
2018-11-04T11:28:35.142Z,43.80
2018-11-04T11:29:35.143Z,44.30
2018-11-04T11:30:35.137Z,42.30
2018-11-04T11:31:35.120Z,42.10
2018-11-04T11:32:35.105Z,49.60
2018-11-04T11:33:35.099Z,43.10
2018-11-04T11:34:35.075Z,40.50
2018-11-04T11:35:35.063Z,43.20
2018-11-04T11:36:35.050Z,42.50
2018-11-04T11:37:35.159Z,42.40
2018-11-04T11:38:35.031Z,41.90
2018-11-04T11:39:35.017Z,41.50
2018-11-04T11:40:35.010Z,43.00
2018-11-04T11:41:34.995Z,44.50
2018-11-04T11:42:34.991Z,40.60
2018-11-04T11:43:34.975Z,40.20
2018-11-04T11:44:34.988Z,43.00
2018-11-04T11:45:34.952Z,39.30
2018-11-04T11:46:34.941Z,45.30
2018-11-04T11:47:34.928Z,42.20
2018-11-04T11:48:34.919Z,42.60
2018-11-04T11:49:34.911Z,44.80
2018-11-04T11:50:34.906Z,42.90
2018-11-04T11:51:34.885Z,40.20
2018-11-04T11:52:34.957Z,44.20
2018-11-04T11:53:34.864Z,40.50
2018-11-04T11:54:34.860Z,42.30
2018-11-04T11:55:34.845Z,43.10
2018-11-04T11:56:34.841Z,42.20
2018-11-04T11:57:34.818Z,41.60
2018-11-04T11:58:34.813Z,40.80
2018-11-04T11:59:34.797Z,40.60
2018-11-04T12:00:34.784Z,44.10
2018-11-04T12:01:34.774Z,40.90
2018-11-04T12:02:34.793Z,40.50
2018-11-04T12:03:34.755Z,43.40
2018-11-04T12:04:34.743Z,43.70
2018-11-04T12:05:34.730Z,40.00
2018-11-04T12:06:34.720Z,43.20
2018-11-04T12:07:34.714Z,43.30
2018-11-04T12:08:34.712Z,40.50
2018-11-04T12:09:34.689Z,39.90
2018-11-04T12:10:34.687Z,41.90
2018-11-04T12:11:34.671Z,45.10
2018-11-04T12:12:34.668Z,41.00
2018-11-04T12:13:34.650Z,42.50
2018-11-04T12:14:34.634Z,45.90
2018-11-04T12:15:34.627Z,42.70
2018-11-04T12:16:34.616Z,41.10
2018-11-04T12:17:34.616Z,43.90
2018-11-04T12:18:34.606Z,40.10
2018-11-04T12:19:34.590Z,43.50
2018-11-04T12:20:34.578Z,42.00
2018-11-04T12:21:34.558Z,40.10
2018-11-04T12:22:34.547Z,41.60
2018-11-04T12:23:34.602Z,43.00
2018-11-04T12:24:34.526Z,42.00
2018-11-04T12:25:34.517Z,40.40
2018-11-04T12:26:34.506Z,44.20
2018-11-04T12:27:34.493Z,40.30
2018-11-04T12:28:34.483Z,41.00
2018-11-04T12:29:34.472Z,41.10
2018-11-04T12:30:34.478Z,40.90
2018-11-04T12:31:34.459Z,46.40
2018-11-04T12:32:34.438Z,43.10
2018-11-04T12:33:34.429Z,42.90
2018-11-04T12:34:34.417Z,43.20
2018-11-04T12:35:34.406Z,41.50
2018-11-04T12:36:34.399Z,42.40
2018-11-04T12:37:34.384Z,44.90
2018-11-04T12:38:34.372Z,41.70
2018-11-04T12:39:34.362Z,41.60
2018-11-04T12:40:34.352Z,42.90
2018-11-04T12:41:34.338Z,40.60
2018-11-04T12:42:34.332Z,44.20
2018-11-04T12:43:34.320Z,42.70
2018-11-04T12:44:34.316Z,40.30
2018-11-04T12:45:34.356Z,40.60
2018-11-04T12:46:34.288Z,41.40
2018-11-04T12:47:34.280Z,44.30
2018-11-04T12:48:34.264Z,39.00
2018-11-04T12:49:34.257Z,43.60
2018-11-04T12:50:34.249Z,42.90
2018-11-04T12:51:34.232Z,40.70
2018-11-04T12:52:34.222Z,38.90